Productos aeronáuticos

  • SIGMET
  • METAR / SPECI
  • TAF
  • AIREP
  • Aviso de aeródromo
  • Pronárea
  • Carta superficie

Mensajes METAR de la última hora

SUAA 231200Z 08010KT CAVOK 13/11 Q1020
SUCA 231200Z 06005KT CAVOK 13/10 Q1016
SUDU 231200Z 10008KT CAVOK 12/10 Q1018
SULS 231200Z VRB02KT 9999 FEW023 BKN200 14/13 Q1020
SUMU 231200Z 10004KT CAVOK 14/12 Q1019 NOSIG
SUSO 231200Z 17005KT 9999 FEW020 SCT067 BKN200 12/11 Q1016

Mensajes METAR de la última hora - Internacionales


Argentina
SAAR 231200Z 16003KT 6000 NSC 11/10 Q1016
SABE 231200Z 09006KT CAVOK 17/13 Q1018
SACO 231200Z 02005KT CAVOK 12/09 Q1015
SAEZ 231200Z 09005KT CAVOK 15/12 Q1017
SAME 231200Z 36002KT 9999 BKN045 BKN060 08/02 Q1017
Bolivia
SLCP 231200Z 00000KT 2000 BR OVC004 23/23 Q1018
SLLP 231200Z 33007KT 9999 FEW005 SCT015 FEW017CB OVC07005/02 Q1039
Brasil
SBBR 231200Z VRB01KT CAVOK 21/18 Q1023
SBFI 231200Z 07009KT 9999 FEW040 20/17 Q1017
SBFL 231200Z 28003KT 230V320 9999 FEW021 SCT035 18/14 Q1022
SBGR 231200Z 13006KT 9999 SCT009 15/13 Q1024
SBPA 231200Z VRB02KT CAVOK 15/15 Q1021
SBRJ 231200Z 03005KT 9999 SCT018 24/20 Q1021
SBSP 231200Z 14006KT 9999 SCT010 BKN012 15/12 Q1024
Colombia
SKBO 231230Z 05006KT 9999 BKN020 13/10 A3038
SKBO 231200Z 06005KT 9999 BKN020 11/09 A3037
Chile
SCCI 231200Z 30025G35KT 9999 SCT035 BKN080 05/02 Q0988 NOSIG
SCEL 231200Z VRB02KT 3000 BR FEW080 OVC160 07/06 Q1016 NOSIG
Ecuador
SEQM 231200Z 19003KT 9999 FEW005 SCT020 12/11 Q1027 NOSIG RMK A3033
EEUU
KMIA 231153Z 18003KT 10SM SCT023 OVC250 27/22 A2999 RMK AO2 SLP155 T02720222 10272 20256 53013
KDCA 231152Z 03007KT 10SM FEW075 BKN160 OVC200 17/13 A2995 RMK AO2 SLP141 70019 T01720128 10183 20161 50001
KIAD 231152Z 04004KT 10SM SCT055 BKN160 OVC220 15/11 A2995 RMK AO2 SLP138 70012 T01500106 10161 20128 58002
KJFK 231151Z VRB06KT 10SM FEW018 FEW047 BKN260 16/13 A2996 RMK AO2 SLP145 70064 T01610128 10167 20150 51009 $
KLGA 231151Z 05005KT 10SM BKN250 16/11 A2995 RMK AO2 SLP143 70053 T01560106 10161 20150 50008 $
España
LEBL 231230Z 19010KT 150V230 9999 FEW030 23/16 Q1020 NOSIG
LEMD 231230Z 08006KT 9999 FEW070 30/08 Q1019 NOSIG
LEBL 231200Z 20011KT 170V230 9999 FEW030 23/14 Q1020 NOSIG
LEMD 231200Z 05004KT 9999 FEW070 31/08 Q1019 NOSIG
Francia
LFPO 231230Z 32011KT 290V350 9999 FEW045 BKN260 22/11 Q1022 NOSIG
LFPO 231200Z 34010KT 310V030 9999 FEW045 BKN260 23/11 Q1022 NOSIG
Inglaterra
EGLL 231220Z AUTO 27009KT 230V290 9999 OVC022 19/14 Q1022
EGLL 231150Z AUTO 24009KT 200V270 9999 SCT024 20/13 Q1022 NOSIG
Panamá
MPTO 231200Z 00000KT 9000 SCT018CB SCT100 25/25 Q1011 NOSIG
Paraguay
SGAS 231200Z 06005KT 360V090 9999 TS BKN033 FEW040CB BKN08021/19 Q1013 RERA
Venezuela
SVMI 231200Z 05003KT 9000 DZ FEW016 BKN070 28/22 Q1013

* Datos extraidos del Text DataServer de la NOAA (NOAA TEXT DATA SERVER)

Instituto Uruguayo de Meteorología

Dr. Javier Barrios Amorín 1488 - CP 11200
Mesa Central (598) 1895

Montevideo - Uruguay